createdAt,value
2023-01-04T00:00:49.272Z,54.90
2023-01-04T00:05:50.732Z,55.25
2023-01-04T00:10:52.315Z,52.50
2023-01-04T00:15:53.833Z,52.53
2023-01-04T00:20:55.254Z,53.83
2023-01-04T00:25:56.670Z,52.28
2023-01-04T00:31:02.381Z,54.17
2023-01-04T00:36:08.806Z,59.40
2023-01-04T00:41:56.925Z,53.88
2023-01-04T00:46:33.720Z,50.60
2023-01-04T00:51:37.106Z,58.53
2023-01-04T00:56:38.571Z,58.03
2023-01-04T01:01:41.347Z,56.67
2023-01-04T01:06:43.288Z,55.55
2023-01-04T01:11:45.097Z,51.42
2023-01-04T01:16:57.303Z,49.42
2023-01-04T01:21:59.463Z,50.47
2023-01-04T01:27:00.893Z,48.17
2023-01-04T01:32:02.370Z,51.13
2023-01-04T01:37:03.906Z,51.88
2023-01-04T01:42:05.311Z,48.92
2023-01-04T01:47:21.575Z,47.30
2023-01-04T01:52:29.575Z,46.47
2023-01-04T01:57:36.992Z,48.80
2023-01-04T02:02:44.781Z,40.72
2023-01-04T02:07:48.058Z,40.75
2023-01-04T02:12:51.799Z,42.50
2023-01-04T02:18:10.030Z,39.60
2023-01-04T02:23:30.146Z,36.38
2023-01-04T02:28:58.771Z,35.92
2023-01-04T02:34:08.356Z,36.00
2023-01-04T02:39:39.170Z,32.17
2023-01-04T02:44:59.429Z,29.42
2023-01-04T02:50:19.286Z,30.67
2023-01-04T02:55:20.933Z,31.75
2023-01-04T03:00:34.116Z,34.83
2023-01-04T03:06:15.105Z,33.50
2023-01-04T03:11:36.981Z,32.85
2023-01-04T03:16:40.643Z,30.25
2023-01-04T03:21:45.482Z,32.67
2023-01-04T03:27:29.166Z,32.35
2023-01-04T03:33:05.685Z,29.73
2023-01-04T03:38:48.173Z,29.25
2023-01-04T03:44:18.894Z,25.02
2023-01-04T03:50:00.527Z,26.17
2023-01-04T03:55:05.476Z,27.45
2023-01-04T04:00:13.660Z,24.40
2023-01-04T04:05:41.445Z,24.00
2023-01-04T04:10:42.863Z,21.02
2023-01-04T04:15:44.336Z,20.67
2023-01-04T04:20:45.746Z,19.17
2023-01-04T04:25:47.147Z,17.70
2023-01-04T04:30:52.131Z,17.83
2023-01-04T04:35:55.003Z,19.33
2023-01-04T04:41:15.189Z,18.55
2023-01-04T04:46:16.738Z,20.55
2023-01-04T04:51:18.323Z,21.00
2023-01-04T04:56:19.818Z,24.08
2023-01-04T05:01:21.704Z,22.55
2023-01-04T05:06:23.765Z,25.30
2023-01-04T05:11:43.450Z,21.48
2023-01-04T05:16:45.439Z,18.83
2023-01-04T05:21:46.925Z,24.58
2023-01-04T05:26:48.415Z,22.85
2023-01-04T05:31:49.953Z,21.85
2023-01-04T05:36:51.483Z,22.83
2023-01-04T05:42:11.283Z,20.95
2023-01-04T05:47:15.157Z,22.10
2023-01-04T05:52:17.277Z,22.77
2023-01-04T05:57:19.242Z,22.98
2023-01-04T06:02:24.807Z,23.30
2023-01-04T06:07:27.542Z,21.67
2023-01-04T06:12:29.010Z,21.42
2023-01-04T06:17:30.452Z,23.50
2023-01-04T06:22:32.902Z,22.98
2023-01-04T06:27:34.512Z,22.42
2023-01-04T06:32:35.985Z,22.45
2023-01-04T06:37:38.199Z,23.02
2023-01-04T06:42:45.767Z,23.88
2023-01-04T06:47:48.194Z,24.42
2023-01-04T06:52:49.730Z,18.33
2023-01-04T06:57:55.069Z,22.63
2023-01-04T07:03:13.540Z,28.00
2023-01-04T07:08:17.065Z,21.40
2023-01-04T07:13:18.524Z,18.95
2023-01-04T07:18:20.096Z,17.90
2023-01-04T07:23:21.526Z,16.15
2023-01-04T07:28:41.355Z,17.25
2023-01-04T07:33:42.826Z,16.27
2023-01-04T07:38:44.342Z,13.35
2023-01-04T07:43:46.247Z,13.05
2023-01-04T07:48:47.729Z,12.38
2023-01-04T07:53:49.301Z,14.38
2023-01-04T07:58:50.800Z,14.15
2023-01-04T08:03:53.226Z,15.75
2023-01-04T08:08:54.665Z,13.85
2023-01-04T08:13:56.202Z,15.38
2023-01-04T08:19:04.372Z,16.23
2023-01-04T08:24:06.213Z,11.88
2023-01-04T08:29:07.691Z,14.65
2023-01-04T08:34:10.290Z,13.73
2023-01-04T08:39:11.781Z,14.90
2023-01-04T08:44:13.209Z,11.38
2023-01-04T08:49:15.487Z,12.40
2023-01-04T08:54:17.423Z,12.60
2023-01-04T08:59:18.900Z,12.20
2023-01-04T09:04:20.483Z,11.23
2023-01-04T09:09:21.999Z,14.60
2023-01-04T09:14:23.437Z,12.73
2023-01-04T09:19:24.966Z,10.65
2023-01-04T09:24:26.391Z,12.25
2023-01-04T09:29:27.872Z,11.90
2023-01-04T09:34:29.325Z,7.07
2023-01-04T09:39:30.823Z,8.80
2023-01-04T09:45:21.897Z,8.80
2023-01-04T09:50:16.618Z,7.85
2023-01-04T09:55:38.738Z,8.63
2023-01-04T10:00:49.447Z,9.85
2023-01-04T10:05:52.843Z,7.07
2023-01-04T10:10:57.646Z,7.30
2023-01-04T10:16:05.166Z,6.88
2023-01-04T10:21:32.854Z,9.85
2023-01-04T10:26:42.407Z,7.60
2023-01-04T10:32:05.967Z,6.82
2023-01-04T10:37:21.077Z,7.32
2023-01-04T10:42:33.320Z,4.72
2023-01-04T10:47:34.681Z,3.00
2023-01-04T10:52:53.851Z,4.97
2023-01-04T10:58:02.424Z,6.82
2023-01-04T11:03:13.574Z,5.43
2023-01-04T11:08:22.017Z,3.70
2023-01-04T11:13:24.619Z,4.70
2023-01-04T11:18:26.044Z,5.40
2023-01-04T11:23:27.520Z,6.13
2023-01-04T11:28:37.818Z,3.38
2023-01-04T11:33:56.327Z,6.32
2023-01-04T11:38:58.400Z,2.93
2023-01-04T11:44:06.075Z,6.28
2023-01-04T11:49:19.143Z,6.20
2023-01-04T11:54:20.681Z,3.92
2023-01-04T11:59:25.445Z,6.80
2023-01-04T12:04:29.104Z,6.95
2023-01-04T12:09:32.124Z,3.22
2023-01-04T12:14:37.391Z,3.40
2023-01-04T12:19:41.638Z,3.90
2023-01-04T12:24:45.480Z,2.72
2023-01-04T12:30:01.651Z,2.95
2023-01-04T12:35:03.171Z,2.63
2023-01-04T12:40:43.042Z,3.05
2023-01-04T12:45:48.497Z,4.40
2023-01-04T12:51:34.188Z,3.08
2023-01-04T12:57:13.313Z,4.68
2023-01-04T13:02:18.548Z,3.22
2023-01-04T13:07:32.712Z,3.65
2023-01-04T13:12:55.913Z,3.13
2023-01-04T13:17:58.200Z,4.18
2023-01-04T13:22:59.874Z,4.47
2023-01-04T13:28:03.664Z,3.65
2023-01-04T13:33:27.620Z,3.80
2023-01-04T13:38:31.686Z,7.60
2023-01-04T13:43:46.564Z,6.00
2023-01-04T13:48:52.035Z,4.50
2023-01-04T13:53:56.047Z,4.65
2023-01-04T13:58:58.020Z,4.15
2023-01-04T14:04:01.497Z,4.82
2023-01-04T14:09:13.337Z,5.43
2023-01-04T14:14:23.687Z,5.90
2023-01-04T14:19:41.771Z,3.85
2023-01-04T14:25:08.887Z,6.18
2023-01-04T14:30:20.366Z,4.28
2023-01-04T14:35:21.989Z,4.78
2023-01-04T14:40:28.574Z,5.20
2023-01-04T14:45:29.985Z,6.65
2023-01-04T14:50:31.513Z,3.95
2023-01-04T14:55:33.098Z,4.43
2023-01-04T15:00:34.532Z,3.80
2023-01-04T15:05:37.933Z,6.63
2023-01-04T15:10:39.615Z,7.60
2023-01-04T15:15:41.765Z,5.65
2023-01-04T15:20:43.564Z,6.40
2023-01-04T15:25:45.008Z,8.40
2023-01-04T15:30:46.433Z,9.65
2023-01-04T15:35:47.968Z,6.13
2023-01-04T15:40:50.256Z,9.30
2023-01-04T15:45:51.666Z,7.38
2023-01-04T15:50:53.080Z,8.85
2023-01-04T15:55:54.502Z,8.70
2023-01-04T16:01:01.239Z,8.98
2023-01-04T16:06:10.577Z,5.90
2023-01-04T16:11:15.649Z,7.95
2023-01-04T16:16:19.147Z,6.25
2023-01-04T16:21:23.542Z,5.00
2023-01-04T16:26:24.990Z,6.65
2023-01-04T16:31:26.508Z,7.38
2023-01-04T16:36:28.092Z,5.18
2023-01-04T16:41:29.979Z,5.30
2023-01-04T16:46:36.059Z,6.07
2023-01-04T16:51:40.344Z,6.88
2023-01-04T16:56:43.621Z,7.63
2023-01-04T17:01:52.681Z,6.57
2023-01-04T17:06:58.354Z,7.18
2023-01-04T17:17:24.494Z,8.63
2023-01-04T17:22:32.347Z,9.90
2023-01-04T17:27:35.692Z,5.88
2023-01-04T17:32:37.116Z,7.43
2023-01-04T17:37:38.528Z,9.18
2023-01-04T17:42:42.170Z,8.10
2023-01-04T17:47:43.588Z,5.82
2023-01-04T17:52:47.520Z,6.80
2023-01-04T17:57:48.964Z,6.28
2023-01-04T18:02:50.389Z,6.90
2023-01-04T18:07:51.801Z,6.72
2023-01-04T18:12:53.220Z,10.77
2023-01-04T18:17:54.628Z,8.90
2023-01-04T18:22:56.031Z,8.40
2023-01-04T18:27:57.452Z,6.40
2023-01-04T18:32:58.932Z,7.57
2023-01-04T18:38:00.658Z,7.60
2023-01-04T18:43:02.094Z,9.73
2023-01-04T18:48:03.759Z,7.97
2023-01-04T18:53:05.246Z,9.40
2023-01-04T18:58:06.707Z,10.82
2023-01-04T19:03:10.919Z,6.82
2023-01-04T19:08:14.806Z,7.40
2023-01-04T19:13:16.269Z,6.97
2023-01-04T19:18:17.791Z,6.72
2023-01-04T19:23:19.750Z,5.28
2023-01-04T19:28:21.853Z,4.53
2023-01-04T19:33:23.302Z,4.82
2023-01-04T19:38:24.755Z,4.90
2023-01-04T19:43:26.439Z,3.83
2023-01-04T19:48:27.902Z,4.20
2023-01-04T19:53:29.392Z,4.55
2023-01-04T19:58:30.896Z,3.85
2023-01-04T20:03:32.507Z,4.82
2023-01-04T20:08:34.517Z,8.68
2023-01-04T20:13:37.072Z,4.88
2023-01-04T20:18:38.756Z,4.05
2023-01-04T20:23:41.230Z,4.35
2023-01-04T20:28:45.783Z,3.50
2023-01-04T20:33:47.732Z,3.38
2023-01-04T20:38:50.044Z,3.25
2023-01-04T20:43:52.188Z,4.03
2023-01-04T20:48:54.556Z,4.10
2023-01-04T20:53:59.706Z,3.67
2023-01-04T20:59:01.143Z,2.45
2023-01-04T21:04:02.609Z,2.63
2023-01-04T21:09:04.048Z,2.53
2023-01-04T21:14:05.497Z,2.50
2023-01-04T21:19:07.710Z,2.72
2023-01-04T21:24:09.143Z,3.35
2023-01-04T21:29:10.554Z,3.50
2023-01-04T21:34:15.152Z,4.80
2023-01-04T21:39:18.541Z,3.80
2023-01-04T21:44:20.053Z,2.60
2023-01-04T21:49:21.473Z,3.05
2023-01-04T21:54:23.722Z,4.13
2023-01-04T21:59:25.151Z,3.15
2023-01-04T22:04:26.771Z,3.30
2023-01-04T22:09:28.601Z,3.45
2023-01-04T22:14:30.006Z,3.00
2023-01-04T22:19:31.474Z,3.97
2023-01-04T22:24:37.722Z,4.78
2023-01-04T22:29:39.740Z,2.60
2023-01-04T22:34:41.142Z,2.20
2023-01-04T22:39:42.562Z,4.65
2023-01-04T22:44:43.968Z,2.88
2023-01-04T22:49:45.388Z,3.17
2023-01-04T22:54:48.471Z,2.35
2023-01-04T22:59:49.890Z,2.38
2023-01-04T23:04:51.354Z,2.83
2023-01-04T23:09:52.990Z,3.30
2023-01-04T23:14:54.478Z,3.10
2023-01-04T23:19:55.918Z,3.13
2023-01-04T23:24:57.432Z,2.47
2023-01-04T23:29:58.899Z,6.75
2023-01-04T23:35:00.343Z,5.35
2023-01-04T23:40:01.894Z,7.43
2023-01-04T23:45:03.542Z,8.45
2023-01-04T23:50:05.262Z,4.85
2023-01-04T23:55:07.076Z,3.10
